Time;durP1;ratioP1;P1;durP2;ratioP2;P2;SDS_P1;SDS_P2;PMS_P1;PMS_P2;Temp;Humidity;BMP_temperature;BMP_pressure;BME280_temperature;BME280_humidity;BME280_pressure;Samples;Min_cycle;Max_cycle;Signal;HPM_P1;HPM_P2
2024/01/31 00:00:10;;;;;;;12.52;7.95;;;;;;;;;;4999734;28;20041;-77
2024/01/31 00:02:36;;;;;;;17.13;8.32;;;;;;;;;;5003120;28;20608;-77
2024/01/31 00:05:02;;;;;;;13.00;7.97;;;;;;;;;;5019086;28;20114;-77
2024/01/31 00:07:28;;;;;;;14.65;8.50;;;;;;;;;;5016482;28;20076;-78
2024/01/31 00:09:53;;;;;;;11.60;7.55;;;;;;;;;;5012641;28;20115;-78
2024/01/31 00:12:19;;;;;;;14.55;7.95;;;;;;;;;;5018665;28;20033;-78
2024/01/31 00:14:44;;;;;;;12.23;7.35;;;;;;;;;;5005264;28;20517;-78
2024/01/31 00:17:10;;;;;;;13.88;7.47;;;;;;;;;;5006125;28;20041;-79
2024/01/31 00:19:35;;;;;;;16.27;8.20;;;;;;;;;;5006959;28;20503;-78
2024/01/31 00:22:01;;;;;;;13.23;8.20;;;;;;;;;;5001376;28;20044;-78
2024/01/31 00:24:26;;;;;;;12.13;7.13;;;;;;;;;;5005681;28;20039;-79
2024/01/31 00:26:52;;;;;;;13.23;7.43;;;;;;;;;;5001899;28;20033;-77
2024/01/31 00:29:17;;;;;;;10.13;6.72;;;;;;;;;;5017464;28;20788;-78
2024/01/31 00:31:43;;;;;;;12.18;6.95;;;;;;;;;;5016859;28;20033;-77
2024/01/31 00:34:09;;;;;;;13.70;7.03;;;;;;;;;;5011100;28;20119;-78
2024/01/31 00:36:34;;;;;;;17.90;7.20;;;;;;;;;;5017313;28;20037;-77
2024/01/31 00:39:00;;;;;;;12.25;6.90;;;;;;;;;;5038425;28;20048;-77
2024/01/31 00:41:26;;;;;;;14.80;7.07;;;;;;;;;;5001795;28;20068;-78
2024/01/31 00:43:51;;;;;;;12.65;6.80;;;;;;;;;;5018077;28;20032;-77
2024/01/31 00:46:17;;;;;;;14.15;7.22;;;;;;;;;;5004274;28;20029;-78
2024/01/31 00:48:43;;;;;;;11.55;6.50;;;;;;;;;;5019948;28;20032;-78
2024/01/31 00:51:11;;;;;;;12.60;6.18;;;;;;;;;;5001548;28;20044;-77
2024/01/31 00:53:38;;;;;;;12.32;6.35;;;;;;;;;;5017773;28;20094;-78
2024/01/31 00:56:04;;;;;;;11.07;5.85;;;;;;;;;;5009880;28;20111;-78
2024/01/31 00:58:29;;;;;;;10.70;5.70;;;;;;;;;;5036430;28;20124;-78
2024/01/31 01:00:54;;;;;;;9.38;5.93;;;;;;;;;;5018133;28;20079;-78
2024/01/31 01:03:20;;;;;;;10.93;6.15;;;;;;;;;;5010775;28;20033;-78
2024/01/31 01:05:46;;;;;;;10.63;5.93;;;;;;;;;;5011197;28;20127;-78
2024/01/31 01:08:11;;;;;;;9.93;5.45;;;;;;;;;;5002796;28;20048;-78
2024/01/31 01:10:36;;;;;;;10.48;5.65;;;;;;;;;;5002513;28;20399;-78
2024/01/31 01:13:02;;;;;;;9.30;5.28;;;;;;;;;;5018784;28;20590;-78
2024/01/31 01:15:27;;;;;;;8.80;5.03;;;;;;;;;;5005838;28;20590;-78
2024/01/31 01:17:53;;;;;;;8.20;4.30;;;;;;;;;;5003530;28;20030;-78
2024/01/31 01:20:18;;;;;;;8.85;5.43;;;;;;;;;;5018744;28;20029;-77
2024/01/31 01:22:45;;;;;;;9.35;4.70;;;;;;;;;;5016290;28;20032;-77
2024/01/31 01:25:11;;;;;;;7.18;4.80;;;;;;;;;;5005165;28;20086;-77
2024/01/31 01:27:36;;;;;;;8.15;4.05;;;;;;;;;;5013977;28;20048;-77
2024/01/31 01:30:02;;;;;;;6.18;3.88;;;;;;;;;;5009415;28;20049;-77
2024/01/31 01:32:28;;;;;;;7.78;4.05;;;;;;;;;;5009470;28;20037;-79
2024/01/31 01:34:54;;;;;;;8.23;4.10;;;;;;;;;;5010420;28;20051;-79
2024/01/31 01:37:19;;;;;;;6.97;3.67;;;;;;;;;;5036550;28;20123;-79
2024/01/31 01:39:45;;;;;;;8.60;3.83;;;;;;;;;;5035096;28;20440;-79
2024/01/31 01:42:11;;;;;;;6.32;3.40;;;;;;;;;;5033170;28;20532;-78
2024/01/31 01:44:42;;;;;;;5.35;3.10;;;;;;;;;;5023024;28;20366;-78
2024/01/31 01:47:07;;;;;;;6.30;3.17;;;;;;;;;;5010765;28;20053;-78
2024/01/31 01:49:33;;;;;;;6.15;3.15;;;;;;;;;;5010842;28;20457;-79
2024/01/31 01:51:59;;;;;;;6.78;3.03;;;;;;;;;;5002236;28;20045;-79
2024/01/31 01:54:24;;;;;;;5.20;2.72;;;;;;;;;;5004565;28;20396;-79
2024/01/31 01:56:54;;;;;;;5.43;2.70;;;;;;;;;;5014306;28;20041;-79
2024/01/31 01:59:20;;;;;;;5.70;2.90;;;;;;;;;;5005345;28;20033;-79
2024/01/31 02:01:46;;;;;;;5.70;2.72;;;;;;;;;;5018533;28;20037;-78
2024/01/31 02:04:12;;;;;;;6.28;2.40;;;;;;;;;;5004582;28;20036;-78
2024/01/31 02:06:38;;;;;;;6.07;2.47;;;;;;;;;;4988861;28;20041;-79
2024/01/31 02:09:03;;;;;;;5.57;2.72;;;;;;;;;;5012588;28;20056;-78
2024/01/31 02:11:30;;;;;;;4.97;2.63;;;;;;;;;;4998262;28;20366;-78
2024/01/31 02:13:56;;;;;;;5.43;2.70;;;;;;;;;;5014739;28;20037;-78
2024/01/31 02:16:22;;;;;;;6.40;2.75;;;;;;;;;;5001692;28;20040;-78
2024/01/31 02:18:48;;;;;;;5.32;2.60;;;;;;;;;;5037973;28;20106;-78
2024/01/31 02:21:15;;;;;;;5.82;3.25;;;;;;;;;;5006945;28;20037;-79
2024/01/31 02:23:41;;;;;;;6.00;3.55;;;;;;;;;;5016108;28;20032;-78
2024/01/31 02:26:06;;;;;;;8.95;4.15;;;;;;;;;;5013490;28;20056;-78
2024/01/31 02:28:31;;;;;;;6.53;3.83;;;;;;;;;;5011459;28;20090;-78
2024/01/31 02:30:57;;;;;;;7.32;3.60;;;;;;;;;;5005291;28;20033;-79
2024/01/31 02:33:22;;;;;;;5.30;3.00;;;;;;;;;;5002605;28;20045;-78
2024/01/31 02:35:48;;;;;;;4.85;2.47;;;;;;;;;;5007157;28;20045;-79
2024/01/31 02:38:14;;;;;;;6.57;2.70;;;;;;;;;;4998221;28;20059;-78
2024/01/31 02:40:40;;;;;;;5.03;2.58;;;;;;;;;;5034956;28;20037;-79
2024/01/31 02:43:05;;;;;;;5.22;2.28;;;;;;;;;;4999822;28;20127;-79
2024/01/31 02:45:31;;;;;;;4.82;2.45;;;;;;;;;;5011690;28;20052;-79
2024/01/31 02:47:56;;;;;;;5.13;2.45;;;;;;;;;;5000027;28;20025;-79
2024/01/31 02:50:22;;;;;;;4.78;2.20;;;;;;;;;;5008644;28;20064;-78
2024/01/31 02:52:48;;;;;;;3.88;2.03;;;;;;;;;;5013588;28;20036;-79
2024/01/31 02:55:13;;;;;;;4.47;2.10;;;;;;;;;;4990843;28;20029;-79
2024/01/31 02:57:39;;;;;;;4.63;1.90;;;;;;;;;;5033193;28;20040;-79
2024/01/31 03:00:06;;;;;;;4.30;1.90;;;;;;;;;;5034440;28;20036;-78
2024/01/31 03:02:32;;;;;;;4.05;1.90;;;;;;;;;;5014129;28;20106;-79
2024/01/31 03:04:57;;;;;;;5.25;2.10;;;;;;;;;;5003625;28;20040;-78
2024/01/31 03:07:23;;;;;;;4.18;1.98;;;;;;;;;;4894383;28;2595762;-78
2024/01/31 03:09:48;;;;;;;4.43;1.83;;;;;;;;;;5008571;28;20041;-78
2024/01/31 03:12:14;;;;;;;3.65;1.70;;;;;;;;;;5005228;28;20519;-78
2024/01/31 03:14:40;;;;;;;3.90;1.60;;;;;;;;;;5027187;28;20463;-79
2024/01/31 03:17:05;;;;;;;3.35;1.70;;;;;;;;;;5020581;28;20083;-78
2024/01/31 03:19:32;;;;;;;3.65;1.63;;;;;;;;;;5006339;28;20400;-78
2024/01/31 03:21:58;;;;;;;4.15;1.70;;;;;;;;;;5019725;28;20098;-78
2024/01/31 03:24:24;;;;;;;5.25;2.05;;;;;;;;;;5004587;28;20584;-77
2024/01/31 03:26:49;;;;;;;4.72;1.90;;;;;;;;;;4998905;28;20089;-78
2024/01/31 03:29:15;;;;;;;3.35;1.60;;;;;;;;;;5006827;28;20133;-79
2024/01/31 03:31:40;;;;;;;4.40;1.65;;;;;;;;;;5027588;28;20044;-78
2024/01/31 03:34:06;;;;;;;3.58;0.90;;;;;;;;;;5004627;28;20096;-79
2024/01/31 03:36:35;;;;;;;2.65;1.10;;;;;;;;;;5019539;28;20033;-78
2024/01/31 03:39:01;;;;;;;2.55;0.80;;;;;;;;;;5006456;28;20102;-78
2024/01/31 03:41:27;;;;;;;2.45;1.00;;;;;;;;;;5001990;28;20502;-78
2024/01/31 03:43:52;;;;;;;2.30;0.95;;;;;;;;;;5019608;28;20416;-78
2024/01/31 03:46:18;;;;;;;3.28;1.08;;;;;;;;;;5015850;28;20037;-78
2024/01/31 03:48:43;;;;;;;2.42;0.95;;;;;;;;;;5028413;28;20056;-78
2024/01/31 03:51:22;;;;;;;3.58;0.90;;;;;;;;;;5003671;28;20044;-78
2024/01/31 03:53:48;;;;;;;2.22;0.93;;;;;;;;;;5004280;28;20528;-78
2024/01/31 03:56:14;;;;;;;3.28;0.95;;;;;;;;;;5001105;28;20033;-78
2024/01/31 03:58:39;;;;;;;2.03;0.95;;;;;;;;;;5007477;28;20184;-78
2024/01/31 04:01:06;;;;;;;2.38;1.00;;;;;;;;;;5021426;28;20447;-78
2024/01/31 04:03:31;;;;;;;4.10;1.15;;;;;;;;;;5027223;28;20037;-78
2024/01/31 04:05:56;;;;;;;2.58;0.82;;;;;;;;;;5006264;28;20043;-78
2024/01/31 04:08:22;;;;;;;2.58;0.82;;;;;;;;;;5011308;28;20073;-78
2024/01/31 04:10:47;;;;;;;2.85;0.88;;;;;;;;;;5028336;28;20375;-78
2024/01/31 04:13:13;;;;;;;2.15;1.05;;;;;;;;;;5004772;28;20095;-78
2024/01/31 04:15:39;;;;;;;1.50;0.70;;;;;;;;;;5000794;28;20561;-77
2024/01/31 04:18:04;;;;;;;2.05;0.75;;;;;;;;;;5019252;28;20067;-78
2024/01/31 04:20:30;;;;;;;1.80;0.70;;;;;;;;;;5019411;28;20044;-78
2024/01/31 04:22:55;;;;;;;2.20;0.85;;;;;;;;;;5017068;28;20041;-78
2024/01/31 04:25:21;;;;;;;1.90;0.57;;;;;;;;;;5019189;28;20086;-77
2024/01/31 04:27:46;;;;;;;1.67;0.75;;;;;;;;;;5026469;28;20037;-78
2024/01/31 04:30:12;;;;;;;1.30;0.60;;;;;;;;;;5012638;28;20052;-78
2024/01/31 04:32:38;;;;;;;1.38;0.60;;;;;;;;;;5002603;28;20392;-78
2024/01/31 04:35:07;;;;;;;3.28;0.70;;;;;;;;;;5021494;28;20029;-79
2024/01/31 04:37:32;;;;;;;2.67;0.70;;;;;;;;;;5016025;28;20041;-78
2024/01/31 04:39:58;;;;;;;3.80;0.60;;;;;;;;;;5017962;28;20107;-79
2024/01/31 04:42:23;;;;;;;1.73;0.85;;;;;;;;;;5010526;28;20115;-78
2024/01/31 04:44:49;;;;;;;1.83;0.65;;;;;;;;;;5018024;28;20042;-78
2024/01/31 04:47:15;;;;;;;1.85;0.60;;;;;;;;;;5035138;28;20384;-78
2024/01/31 04:49:40;;;;;;;1.23;0.50;;;;;;;;;;5007561;28;20029;-79
2024/01/31 04:52:06;;;;;;;1.45;0.47;;;;;;;;;;5003689;28;20033;-78
2024/01/31 04:54:31;;;;;;;2.17;0.60;;;;;;;;;;5002279;28;20079;-78
2024/01/31 04:56:57;;;;;;;2.08;0.50;;;;;;;;;;5002900;28;20045;-78
2024/01/31 04:59:22;;;;;;;1.15;0.45;;;;;;;;;;5018515;28;20053;-78
2024/01/31 05:01:47;;;;;;;1.35;0.50;;;;;;;;;;5013863;28;20036;-80
2024/01/31 05:04:13;;;;;;;1.95;0.47;;;;;;;;;;5017198;28;20033;-82
2024/01/31 05:06:38;;;;;;;1.10;0.50;;;;;;;;;;5012035;28;20041;-82
2024/01/31 05:09:03;;;;;;;0.90;0.45;;;;;;;;;;5003996;28;20030;-79
2024/01/31 05:11:29;;;;;;;1.95;0.50;;;;;;;;;;5016602;28;20404;-79
2024/01/31 05:13:54;;;;;;;1.73;0.60;;;;;;;;;;5002299;28;20048;-79
2024/01/31 05:16:20;;;;;;;3.13;0.60;;;;;;;;;;4993275;28;20459;-79
2024/01/31 05:18:45;;;;;;;1.63;0.50;;;;;;;;;;5001421;28;20041;-80
2024/01/31 05:21:11;;;;;;;2.25;0.50;;;;;;;;;;5019154;28;20037;-81
2024/01/31 05:23:39;;;;;;;1.65;0.43;;;;;;;;;;5021149;28;20047;-79
2024/01/31 05:26:08;;;;;;;1.48;0.50;;;;;;;;;;5036946;28;20153;-80
2024/01/31 05:28:34;;;;;;;0.70;0.40;;;;;;;;;;5023017;28;20033;-79
2024/01/31 05:31:00;;;;;;;1.15;0.47;;;;;;;;;;5018230;28;20046;-79
2024/01/31 05:33:25;;;;;;;1.95;0.40;;;;;;;;;;5000768;28;20041;-79
2024/01/31 05:35:51;;;;;;;0.65;0.30;;;;;;;;;;5001066;28;20116;-79
2024/01/31 05:38:17;;;;;;;2.10;0.40;;;;;;;;;;5003907;28;20044;-79
2024/01/31 05:40:44;;;;;;;1.52;0.45;;;;;;;;;;5019340;28;20949;-79
2024/01/31 05:43:10;;;;;;;1.33;0.32;;;;;;;;;;5018925;28;20818;-80
2024/01/31 05:45:35;;;;;;;1.05;0.40;;;;;;;;;;4997436;28;20044;-79
2024/01/31 05:48:02;;;;;;;1.20;0.40;;;;;;;;;;4997003;28;20503;-79
2024/01/31 05:50:27;;;;;;;1.63;0.40;;;;;;;;;;5017849;28;20124;-81
2024/01/31 05:52:53;;;;;;;1.42;0.47;;;;;;;;;;5035041;28;20663;-79
2024/01/31 05:55:18;;;;;;;1.63;0.40;;;;;;;;;;5020261;28;20668;-78
2024/01/31 05:57:50;;;;;;;1.20;0.40;;;;;;;;;;5007215;28;20037;-79
2024/01/31 06:00:16;;;;;;;2.03;0.40;;;;;;;;;;5018160;28;20037;-80
2024/01/31 06:02:42;;;;;;;1.10;0.50;;;;;;;;;;5006053;28;20037;-81
2024/01/31 06:05:08;;;;;;;1.35;0.40;;;;;;;;;;5007808;28;20040;-82
2024/01/31 06:07:33;;;;;;;1.90;0.50;;;;;;;;;;4990932;28;20048;-82
2024/01/31 06:09:59;;;;;;;1.40;0.43;;;;;;;;;;4985748;28;20496;-80
2024/01/31 06:12:24;;;;;;;2.17;0.70;;;;;;;;;;4985219;28;20030;-80
2024/01/31 06:14:50;;;;;;;2.50;0.50;;;;;;;;;;4994038;28;20036;-82
2024/01/31 06:17:17;;;;;;;1.67;0.50;;;;;;;;;;4996112;28;20038;-81
2024/01/31 06:19:45;;;;;;;1.15;0.45;;;;;;;;;;4992997;28;20778;-82
2024/01/31 06:22:11;;;;;;;1.85;0.40;;;;;;;;;;4986126;28;20237;-80
2024/01/31 06:24:36;;;;;;;1.23;0.32;;;;;;;;;;4994966;28;20132;-80
2024/01/31 06:27:04;;;;;;;2.00;0.47;;;;;;;;;;4994098;28;20048;-80
2024/01/31 06:29:30;;;;;;;1.73;0.50;;;;;;;;;;4981506;28;20038;-80
2024/01/31 06:31:59;;;;;;;2.88;0.45;;;;;;;;;;4992262;28;20036;-80
2024/01/31 06:34:25;;;;;;;1.83;0.40;;;;;;;;;;4994006;28;20505;-80
2024/01/31 06:36:53;;;;;;;2.00;0.40;;;;;;;;;;4977037;28;20049;-82
2024/01/31 06:39:19;;;;;;;2.92;0.50;;;;;;;;;;4987598;28;20632;-83
2024/01/31 06:41:45;;;;;;;1.35;0.40;;;;;;;;;;5003952;28;20093;-83
2024/01/31 06:44:10;;;;;;;1.27;0.35;;;;;;;;;;4995348;28;20038;-83
2024/01/31 06:46:36;;;;;;;1.67;0.30;;;;;;;;;;4985279;28;20041;-80
2024/01/31 06:49:01;;;;;;;1.15;0.30;;;;;;;;;;4987315;28;20041;-82
2024/01/31 06:51:29;;;;;;;1.80;0.30;;;;;;;;;;4996136;28;20049;-84
2024/01/31 06:53:54;;;;;;;0.57;0.20;;;;;;;;;;4985796;28;20038;-81
2024/01/31 06:56:20;;;;;;;0.90;0.30;;;;;;;;;;4993543;28;20497;-80
2024/01/31 06:58:49;;;;;;;1.33;0.35;;;;;;;;;;4998943;28;20390;-81
2024/01/31 07:01:20;;;;;;;0.60;0.30;;;;;;;;;;4989503;28;20040;-81
2024/01/31 07:03:46;;;;;;;1.08;0.30;;;;;;;;;;4996841;28;20116;-81
2024/01/31 07:06:12;;;;;;;1.40;0.40;;;;;;;;;;5003050;28;20241;-82
2024/01/31 07:08:39;;;;;;;0.57;0.25;;;;;;;;;;5000820;28;20123;-81
2024/01/31 07:11:08;;;;;;;2.50;0.40;;;;;;;;;;5008679;28;20037;-81
2024/01/31 07:13:39;;;;;;;1.10;0.30;;;;;;;;;;5005994;28;20037;-80
2024/01/31 07:16:09;;;;;;;1.95;0.30;;;;;;;;;;5000921;28;20096;-80
2024/01/31 07:18:44;;;;;;;3.03;0.30;;;;;;;;;;5016980;28;20042;-80
2024/01/31 07:21:10;;;;;;;3.10;0.50;;;;;;;;;;5015883;28;20079;-80
2024/01/31 07:23:36;;;;;;;1.33;0.32;;;;;;;;;;5002700;28;20033;-80
2024/01/31 07:26:01;;;;;;;1.02;0.40;;;;;;;;;;5017521;28;20037;-79
2024/01/31 07:28:33;;;;;;;1.52;0.30;;;;;;;;;;5006184;28;20037;-79
2024/01/31 07:31:02;;;;;;;1.48;0.40;;;;;;;;;;5024296;28;20040;-80
2024/01/31 07:33:53;;;;;;;2.92;0.50;;;;;;;;;;4974393;28;20037;-81
2024/01/31 07:36:19;;;;;;;1.85;0.32;;;;;;;;;;4985502;28;20045;-80
2024/01/31 07:38:46;;;;;;;1.42;0.30;;;;;;;;;;5016661;28;20037;-80
2024/01/31 07:41:15;;;;;;;1.88;0.50;;;;;;;;;;5014383;28;20039;-80
2024/01/31 07:43:42;;;;;;;1.40;0.40;;;;;;;;;;5001042;28;20037;-79
2024/01/31 07:46:08;;;;;;;1.45;0.30;;;;;;;;;;5027328;28;20033;-80
2024/01/31 07:48:34;;;;;;;0.80;0.30;;;;;;;;;;5000999;28;20067;-80
2024/01/31 07:51:03;;;;;;;1.58;0.38;;;;;;;;;;5003787;28;20503;-79
2024/01/31 07:53:29;;;;;;;0.88;0.30;;;;;;;;;;5001046;28;20076;-79
2024/01/31 07:55:55;;;;;;;1.33;0.30;;;;;;;;;;5003182;28;20392;-80
2024/01/31 07:58:20;;;;;;;2.15;0.40;;;;;;;;;;5014862;28;20040;-79
2024/01/31 08:00:46;;;;;;;1.95;0.50;;;;;;;;;;5005075;28;20044;-79
2024/01/31 08:03:11;;;;;;;1.15;0.30;;;;;;;;;;5019412;28;20061;-81
2024/01/31 08:05:38;;;;;;;1.60;0.32;;;;;;;;;;4981045;28;20116;-81
2024/01/31 08:08:04;;;;;;;1.30;0.35;;;;;;;;;;4976909;28;20105;-80
2024/01/31 08:10:29;;;;;;;1.40;0.38;;;;;;;;;;4968041;28;20133;-79
2024/01/31 08:13:21;;;;;;;4.22;0.50;;;;;;;;;;4988517;28;20029;-80
2024/01/31 08:15:47;;;;;;;2.05;0.40;;;;;;;;;;4932427;28;20037;-80
2024/01/31 08:18:12;;;;;;;1.10;0.30;;;;;;;;;;4946390;28;20039;-80
2024/01/31 08:20:38;;;;;;;1.80;0.68;;;;;;;;;;4946289;28;20081;-80
2024/01/31 08:23:03;;;;;;;1.13;0.47;;;;;;;;;;4953233;28;20038;-80
2024/01/31 08:25:29;;;;;;;1.52;0.47;;;;;;;;;;4928712;28;20089;-79
2024/01/31 08:27:54;;;;;;;1.77;0.57;;;;;;;;;;4966162;28;20035;-81
2024/01/31 08:30:21;;;;;;;1.83;0.50;;;;;;;;;;4951053;28;20063;-81
2024/01/31 08:32:48;;;;;;;1.02;0.30;;;;;;;;;;4952365;28;20533;-80
2024/01/31 08:35:14;;;;;;;1.45;0.30;;;;;;;;;;4960632;28;20043;-80
2024/01/31 08:37:39;;;;;;;1.95;0.40;;;;;;;;;;4952766;28;20528;-80
2024/01/31 08:40:08;;;;;;;1.20;0.30;;;;;;;;;;4950343;28;20619;-80
2024/01/31 08:42:36;;;;;;;1.77;0.30;;;;;;;;;;4965878;28;20045;-80
2024/01/31 08:45:02;;;;;;;1.85;0.30;;;;;;;;;;4935745;28;20154;-80
2024/01/31 08:47:27;;;;;;;1.58;0.60;;;;;;;;;;4949913;28;20616;-80
2024/01/31 08:49:53;;;;;;;2.47;0.55;;;;;;;;;;4967931;28;20042;-81
2024/01/31 08:52:18;;;;;;;1.65;0.40;;;;;;;;;;4946868;28;20497;-81
2024/01/31 08:54:44;;;;;;;0.80;0.35;;;;;;;;;;4974739;28;20038;-80
2024/01/31 08:57:09;;;;;;;0.68;0.30;;;;;;;;;;4991151;28;20049;-80
2024/01/31 08:59:37;;;;;;;1.58;0.30;;;;;;;;;;4987487;28;20038;-80
2024/01/31 09:02:03;;;;;;;1.25;0.30;;;;;;;;;;4994319;28;20528;-80
2024/01/31 09:04:29;;;;;;;1.25;0.30;;;;;;;;;;4980782;28;20034;-80
2024/01/31 09:06:54;;;;;;;1.65;0.35;;;;;;;;;;5007463;28;20055;-80
2024/01/31 09:09:19;;;;;;;1.00;0.30;;;;;;;;;;5035287;28;20431;-80
2024/01/31 09:11:45;;;;;;;2.60;0.50;;;;;;;;;;4998090;28;20033;-79
2024/01/31 09:14:10;;;;;;;1.25;0.40;;;;;;;;;;5018128;28;20065;-79
2024/01/31 09:16:38;;;;;;;1.38;0.40;;;;;;;;;;4998690;28;20146;-80
2024/01/31 09:19:04;;;;;;;1.15;0.38;;;;;;;;;;5016114;28;20108;-79
2024/01/31 09:21:33;;;;;;;2.58;0.47;;;;;;;;;;5009486;28;20043;-79
2024/01/31 09:24:01;;;;;;;2.45;0.32;;;;;;;;;;4995520;28;20055;-77
2024/01/31 09:26:27;;;;;;;1.83;0.50;;;;;;;;;;5014546;28;20041;-79
2024/01/31 09:28:52;;;;;;;1.80;0.40;;;;;;;;;;4999295;28;20037;-78
2024/01/31 09:31:25;;;;;;;1.27;0.30;;;;;;;;;;5021014;28;20669;-80
2024/01/31 09:33:52;;;;;;;1.88;0.43;;;;;;;;;;5027141;28;20037;-80
2024/01/31 09:36:20;;;;;;;1.90;0.63;;;;;;;;;;5014042;28;20163;-79
2024/01/31 09:38:49;;;;;;;1.25;0.40;;;;;;;;;;5006609;28;20033;-79
2024/01/31 09:41:16;;;;;;;4.55;0.60;;;;;;;;;;5009396;28;20530;-80
2024/01/31 09:43:42;;;;;;;1.25;0.30;;;;;;;;;;5029412;28;20045;-79
2024/01/31 09:46:12;;;;;;;0.95;0.40;;;;;;;;;;5022526;28;20556;-80
2024/01/31 09:48:38;;;;;;;2.45;0.52;;;;;;;;;;5006668;28;20034;-80
2024/01/31 09:51:04;;;;;;;1.58;0.35;;;;;;;;;;4996624;28;20519;-81
2024/01/31 09:53:34;;;;;;;0.93;0.40;;;;;;;;;;5022616;28;20034;-81
2024/01/31 09:56:00;;;;;;;2.80;0.60;;;;;;;;;;4993860;28;20032;-80
2024/01/31 09:58:25;;;;;;;1.38;0.40;;;;;;;;;;5000282;28;20065;-79
2024/01/31 10:00:52;;;;;;;1.35;0.40;;;;;;;;;;5017695;28;20033;-79
2024/01/31 10:03:17;;;;;;;1.42;0.40;;;;;;;;;;5018591;28;20043;-79
2024/01/31 10:05:44;;;;;;;1.50;0.40;;;;;;;;;;5026605;28;20033;-79
2024/01/31 10:08:10;;;;;;;1.85;0.60;;;;;;;;;;5010866;28;20053;-79
2024/01/31 10:10:39;;;;;;;1.63;0.47;;;;;;;;;;4989186;28;20107;-80
2024/01/31 10:13:08;;;;;;;2.03;0.60;;;;;;;;;;5015867;28;20034;-80
2024/01/31 10:15:33;;;;;;;2.83;0.55;;;;;;;;;;5020598;28;20049;-80
2024/01/31 10:17:59;;;;;;;3.45;0.93;;;;;;;;;;4992005;28;20041;-80
2024/01/31 10:20:25;;;;;;;4.00;0.60;;;;;;;;;;5012034;28;20116;-80
2024/01/31 10:22:50;;;;;;;2.63;0.70;;;;;;;;;;5035638;28;20037;-80
2024/01/31 10:25:18;;;;;;;3.45;0.77;;;;;;;;;;5003942;28;20051;-80
2024/01/31 10:27:47;;;;;;;4.63;0.70;;;;;;;;;;5010246;28;20033;-80
2024/01/31 10:30:14;;;;;;;2.78;0.60;;;;;;;;;;5003409;28;20029;-80
2024/01/31 10:32:40;;;;;;;1.87;0.67;;;;;;;;;;5034967;28;20048;-80
2024/01/31 10:35:06;;;;;;;3.00;0.60;;;;;;;;;;5002507;28;20041;-80
2024/01/31 10:37:32;;;;;;;3.67;0.75;;;;;;;;;;5004884;28;20070;-80
2024/01/31 10:40:01;;;;;;;3.05;0.88;;;;;;;;;;5019798;28;20082;-80
2024/01/31 10:42:26;;;;;;;2.20;0.50;;;;;;;;;;5014569;28;20086;-79
2024/01/31 10:44:53;;;;;;;3.05;0.60;;;;;;;;;;5021058;28;20033;-80
2024/01/31 10:47:18;;;;;;;2.15;0.70;;;;;;;;;;5011437;28;20045;-80
2024/01/31 10:49:44;;;;;;;3.15;0.68;;;;;;;;;;5007918;28;20037;-79
2024/01/31 10:52:11;;;;;;;2.83;0.70;;;;;;;;;;5037500;28;20455;-80
2024/01/31 10:54:58;;;;;;;2.50;0.80;;;;;;;;;;5009420;28;20500;-80
2024/01/31 10:57:25;;;;;;;2.47;0.55;;;;;;;;;;5018539;28;20064;-79
2024/01/31 10:59:55;;;;;;;1.50;0.63;;;;;;;;;;5004898;28;20396;-80
2024/01/31 11:02:27;;;;;;;4.45;1.13;;;;;;;;;;5005578;28;20046;-80
2024/01/31 11:04:57;;;;;;;2.65;0.80;;;;;;;;;;5019512;28;20037;-80
2024/01/31 11:07:23;;;;;;;3.53;0.70;;;;;;;;;;5016380;28;20128;-79
2024/01/31 11:09:48;;;;;;;2.95;0.90;;;;;;;;;;5023896;28;20133;-80
2024/01/31 11:12:15;;;;;;;2.58;0.60;;;;;;;;;;5007228;28;20373;-79
2024/01/31 11:14:42;;;;;;;3.80;0.82;;;;;;;;;;5033591;28;20045;-80
2024/01/31 11:17:17;;;;;;;;;;;;;;;;;;5033277;28;20045;-80
2024/01/31 11:19:54;;;;;;;5.18;1.00;;;;;;;;;;5035036;28;19928;-80
2024/01/31 11:22:20;;;;;;;3.47;0.88;;;;;;;;;;5040198;28;20055;-80
2024/01/31 11:24:49;;;;;;;2.95;0.70;;;;;;;;;;5027786;28;20137;-81
2024/01/31 11:27:16;;;;;;;4.80;0.75;;;;;;;;;;5032039;28;20505;-80
2024/01/31 11:29:50;;;;;;;2.20;0.88;;;;;;;;;;5017883;28;20488;-80
2024/01/31 11:32:21;;;;;;;5.50;1.52;;;;;;;;;;5036017;28;20037;-79
2024/01/31 11:34:57;;;;;;;2.88;0.70;;;;;;;;;;5006381;28;20178;-80
2024/01/31 11:37:23;;;;;;;4.60;1.10;;;;;;;;;;5018204;28;20119;-80
2024/01/31 11:39:48;;;;;;;4.22;0.90;;;;;;;;;;5024866;28;20064;-80
2024/01/31 11:42:14;;;;;;;7.68;1.05;;;;;;;;;;5021858;28;20490;-79
2024/01/31 11:44:39;;;;;;;4.15;1.00;;;;;;;;;;5020510;28;20055;-80
2024/01/31 11:47:05;;;;;;;5.00;0.95;;;;;;;;;;5018591;28;20111;-80
2024/01/31 11:49:30;;;;;;;3.42;1.20;;;;;;;;;;5007464;28;20369;-80
2024/01/31 11:51:56;;;;;;;6.38;0.90;;;;;;;;;;5004655;28;20033;-80
2024/01/31 11:54:21;;;;;;;4.22;0.95;;;;;;;;;;5006642;28;20045;-81
2024/01/31 11:56:47;;;;;;;5.72;1.00;;;;;;;;;;5009394;28;20300;-79
2024/01/31 11:59:13;;;;;;;5.25;0.85;;;;;;;;;;5021377;28;20120;-80
2024/01/31 12:01:39;;;;;;;6.00;1.13;;;;;;;;;;5013633;28;20037;-79
2024/01/31 12:04:04;;;;;;;7.90;0.80;;;;;;;;;;5010778;28;20047;-80
2024/01/31 12:06:30;;;;;;;5.97;1.02;;;;;;;;;;5006173;28;20041;-80
2024/01/31 12:08:56;;;;;;;4.88;0.90;;;;;;;;;;5012252;28;20032;-80
2024/01/31 12:11:22;;;;;;;8.02;1.13;;;;;;;;;;5005858;28;20041;-79
2024/01/31 12:13:47;;;;;;;6.60;1.20;;;;;;;;;;5006551;28;20076;-79
2024/01/31 12:16:13;;;;;;;8.20;1.50;;;;;;;;;;5039941;28;20071;-79
2024/01/31 12:18:39;;;;;;;6.38;1.05;;;;;;;;;;5006692;28;20040;-79
2024/01/31 12:21:06;;;;;;;5.25;1.05;;;;;;;;;;5004996;28;20563;-79
2024/01/31 12:23:32;;;;;;;6.15;1.10;;;;;;;;;;5013779;28;20071;-79
2024/01/31 12:25:58;;;;;;;5.32;0.80;;;;;;;;;;5019764;28;20053;-80
2024/01/31 12:28:27;;;;;;;7.10;0.98;;;;;;;;;;5018401;28;20124;-79
2024/01/31 12:30:52;;;;;;;8.30;1.15;;;;;;;;;;5011543;28;20068;-80
2024/01/31 12:33:18;;;;;;;4.68;0.90;;;;;;;;;;5018206;28;20042;-81
2024/01/31 12:35:47;;;;;;;5.45;1.02;;;;;;;;;;5028600;28;20113;-80
2024/01/31 12:38:15;;;;;;;4.18;1.00;;;;;;;;;;4996457;28;20049;-80
2024/01/31 12:40:40;;;;;;;6.68;1.98;;;;;;;;;;5015492;28;20053;-78
2024/01/31 12:43:09;;;;;;;5.55;1.10;;;;;;;;;;5018558;28;20037;-81
2024/01/31 12:45:34;;;;;;;4.90;1.05;;;;;;;;;;5022852;28;20041;-80
2024/01/31 12:48:00;;;;;;;8.55;1.35;;;;;;;;;;5024139;28;20534;-80
2024/01/31 12:50:26;;;;;;;6.32;1.10;;;;;;;;;;5010649;28;20048;-79
2024/01/31 12:52:52;;;;;;;6.22;1.00;;;;;;;;;;5013319;28;20042;-79
2024/01/31 12:55:18;;;;;;;5.70;1.08;;;;;;;;;;5020593;28;20124;-80
2024/01/31 12:57:43;;;;;;;4.05;0.88;;;;;;;;;;5037871;28;20152;-80
2024/01/31 13:00:09;;;;;;;5.22;0.88;;;;;;;;;;5023287;28;20052;-80
2024/01/31 13:02:34;;;;;;;2.50;0.70;;;;;;;;;;5022399;28;20048;-80
2024/01/31 13:05:00;;;;;;;4.25;0.80;;;;;;;;;;5000962;28;20041;-80
2024/01/31 13:07:25;;;;;;;4.10;0.90;;;;;;;;;;5032439;28;20048;-80
2024/01/31 13:09:51;;;;;;;4.90;0.90;;;;;;;;;;5020433;28;20032;-80
2024/01/31 13:12:16;;;;;;;3.45;0.75;;;;;;;;;;5027487;28;20116;-79
2024/01/31 13:14:41;;;;;;;6.13;0.88;;;;;;;;;;5036611;28;20037;-80
2024/01/31 13:17:07;;;;;;;4.57;0.90;;;;;;;;;;5018953;28;20044;-80
2024/01/31 13:19:36;;;;;;;5.78;0.73;;;;;;;;;;5024746;28;20037;-82
2024/01/31 13:22:02;;;;;;;8.07;1.00;;;;;;;;;;5026571;28;20040;-79
2024/01/31 13:24:27;;;;;;;3.83;0.82;;;;;;;;;;5038422;28;20033;-79
2024/01/31 13:26:53;;;;;;;3.78;0.70;;;;;;;;;;5007738;28;20037;-79
2024/01/31 13:29:18;;;;;;;3.20;0.70;;;;;;;;;;5021676;28;20389;-80
2024/01/31 13:31:44;;;;;;;3.47;0.90;;;;;;;;;;5020732;28;20037;-80
2024/01/31 13:34:12;;;;;;;6.55;1.08;;;;;;;;;;5005191;28;20569;-79
2024/01/31 13:36:41;;;;;;;2.85;0.88;;;;;;;;;;5020822;28;20044;-80
2024/01/31 13:39:06;;;;;;;4.68;0.93;;;;;;;;;;5009672;28;20065;-80
2024/01/31 13:41:36;;;;;;;3.45;0.70;;;;;;;;;;5018079;28;20044;-80
2024/01/31 13:44:01;;;;;;;3.20;0.93;;;;;;;;;;5023544;28;20021;-79
2024/01/31 13:46:27;;;;;;;7.78;1.13;;;;;;;;;;5018233;28;20041;-80
2024/01/31 13:48:52;;;;;;;9.02;1.17;;;;;;;;;;5018039;28;20128;-80
2024/01/31 13:51:18;;;;;;;2.80;0.95;;;;;;;;;;5005509;28;20505;-81
2024/01/31 13:53:50;;;;;;;6.45;0.98;;;;;;;;;;5006717;28;20087;-79
2024/01/31 13:56:16;;;;;;;3.97;0.93;;;;;;;;;;5003859;28;20388;-80
2024/01/31 13:58:43;;;;;;;3.00;0.90;;;;;;;;;;5002831;28;20045;-80
2024/01/31 14:01:08;;;;;;;4.20;1.33;;;;;;;;;;5030226;28;20037;-80
2024/01/31 14:03:33;;;;;;;4.65;1.30;;;;;;;;;;5020091;28;20033;-80
2024/01/31 14:05:59;;;;;;;2.78;1.20;;;;;;;;;;5016525;28;20075;-80
2024/01/31 14:08:24;;;;;;;4.38;1.20;;;;;;;;;;5012079;28;20049;-80
2024/01/31 14:10:50;;;;;;;2.90;1.30;;;;;;;;;;5012506;28;20120;-80
2024/01/31 14:13:18;;;;;;;6.93;1.52;;;;;;;;;;5016434;28;20041;-80
2024/01/31 14:15:43;;;;;;;5.22;1.60;;;;;;;;;;5033203;28;20039;-80
2024/01/31 14:18:09;;;;;;;3.30;1.40;;;;;;;;;;5000633;28;20124;-80
2024/01/31 14:20:34;;;;;;;5.57;1.45;;;;;;;;;;4995660;28;20045;-78
2024/01/31 14:22:59;;;;;;;5.75;1.80;;;;;;;;;;5016528;28;20065;-79
2024/01/31 14:25:26;;;;;;;6.95;1.77;;;;;;;;;;5002763;28;20034;-80
2024/01/31 14:27:52;;;;;;;4.05;1.70;;;;;;;;;;5035816;28;20431;-80
2024/01/31 14:30:17;;;;;;;5.32;1.80;;;;;;;;;;5017561;28;20038;-80
2024/01/31 14:32:43;;;;;;;4.22;1.50;;;;;;;;;;5017978;28;20044;-78
2024/01/31 14:35:08;;;;;;;5.78;2.15;;;;;;;;;;5002810;28;20674;-79
2024/01/31 14:37:34;;;;;;;3.83;1.75;;;;;;;;;;5003263;28;20042;-81